Time;durP1;ratioP1;P1;durP2;ratioP2;P2;SDS_P1;SDS_P2;PMS_P1;PMS_P2;Temp;Humidity;BMP_temperature;BMP_pressure;BME280_temperature;BME280_humidity;BME280_pressure;Samples;Min_cycle;Max_cycle;Signal;HPM_P1;HPM_P2
2023/07/11 00:02:21;;;;;;;;;;;24.30;55.20;;;;;;5112962;28;19920;-58
2023/07/11 00:04:46;;;;;;;;;;;24.30;55.20;;;;;;5114261;28;19927;-58
2023/07/11 00:07:12;;;;;;;;;;;24.30;55.30;;;;;;5113209;28;19964;-59
2023/07/11 00:09:37;;;;;;;;;;;24.30;55.30;;;;;;5113080;28;19920;-59
2023/07/11 00:12:03;;;;;;;;;;;24.30;55.30;;;;;;5112818;28;19932;-59
2023/07/11 00:14:28;;;;;;;;;;;24.30;56.00;;;;;;5112992;28;19931;-59
2023/07/11 00:16:54;;;;;;;;;;;24.30;55.30;;;;;;5113988;28;19919;-59
2023/07/11 00:19:20;;;;;;;;;;;24.30;55.30;;;;;;5112735;28;19920;-59
2023/07/11 00:21:46;;;;;;;;;;;24.30;55.30;;;;;;5112607;28;19920;-58
2023/07/11 00:24:11;;;;;;;;;;;24.20;55.20;;;;;;5112937;28;19919;-58
2023/07/11 00:26:37;;;;;;;;;;;24.20;55.30;;;;;;5113603;28;20477;-58
2023/07/11 00:29:22;;;;;;;;;;;24.20;55.20;;;;;;5112567;28;19919;-59
2023/07/11 00:31:48;;;;;;;;;;;24.20;55.20;;;;;;5113621;28;19927;-59
2023/07/11 00:34:13;;;;;;;;;;;24.20;55.20;;;;;;5112299;28;19928;-58
2023/07/11 00:36:38;;;;;;;;;;;24.20;55.20;;;;;;5112413;28;19959;-59
2023/07/11 00:39:04;;;;;;;;;;;24.20;55.20;;;;;;5112774;28;19926;-59
2023/07/11 00:41:30;;;;;;;;;;;24.20;55.20;;;;;;5112258;28;19945;-58
2023/07/11 00:43:55;;;;;;;;;;;24.20;55.20;;;;;;5146221;27;19920;-58
2023/07/11 00:46:21;;;;;;;;;;;24.10;55.20;;;;;;5113372;28;20245;-58
2023/07/11 00:48:49;;;;;;;;;;;24.20;55.30;;;;;;5112374;28;19969;-59
2023/07/11 00:51:18;;;;;;;;;;;24.10;55.30;;;;;;5113411;28;19926;-59
2023/07/11 00:53:43;;;;;;;;;;;24.10;55.30;;;;;;5111962;28;19923;-58
2023/07/11 00:56:10;;;;;;;;;;;24.10;55.30;;;;;;5113191;28;19943;-61
2023/07/11 00:58:38;;;;;;;;;;;24.10;55.30;;;;;;5113372;28;20316;-58
2023/07/11 01:01:04;;;;;;;;;;;24.10;55.30;;;;;;5111977;28;20344;-59
2023/07/11 01:03:29;;;;;;;;;;;24.10;55.30;;;;;;5113128;28;19919;-59
2023/07/11 01:05:56;;;;;;;;;;;24.10;55.30;;;;;;5112098;28;19942;-59
2023/07/11 01:08:21;;;;;;;;;;;24.10;55.40;;;;;;5112004;28;19974;-59
2023/07/11 01:10:47;;;;;;;;;;;24.10;55.40;;;;;;5112118;28;19920;-61
2023/07/11 01:13:12;;;;;;;;;;;24.10;55.40;;;;;;5111690;28;19931;-58
2023/07/11 01:15:38;;;;;;;;;;;24.10;55.40;;;;;;5111626;28;19927;-59
2023/07/11 01:18:03;;;;;;;;;;;24.10;55.50;;;;;;5146466;27;19923;-59
2023/07/11 01:20:29;;;;;;;;;;;24.10;55.50;;;;;;5146046;27;19957;-59
2023/07/11 01:22:55;;;;;;;;;;;24.10;55.50;;;;;;5112895;28;19924;-58
2023/07/11 01:25:22;;;;;;;;;;;24.10;55.50;;;;;;5111680;28;19973;-59
2023/07/11 01:27:48;;;;;;;;;;;24.10;55.50;;;;;;5111777;28;19919;-59
2023/07/11 01:30:15;;;;;;;;;;;24.00;55.40;;;;;;5111800;28;19931;-59
2023/07/11 01:32:40;;;;;;;;;;;24.00;55.50;;;;;;5111535;28;20447;-58
2023/07/11 01:35:06;;;;;;;;;;;24.00;55.50;;;;;;5111063;28;19924;-58
2023/07/11 01:37:32;;;;;;;;;;;24.00;55.40;;;;;;5111698;28;19955;-59
2023/07/11 01:39:57;;;;;;;;;;;24.00;55.50;;;;;;5111361;28;19919;-59
2023/07/11 01:42:24;;;;;;;;;;;24.00;55.50;;;;;;5111710;28;20073;-59
2023/07/11 01:44:49;;;;;;;;;;;24.00;55.50;;;;;;5111376;28;20397;-59
2023/07/11 01:47:15;;;;;;;;;;;24.00;55.50;;;;;;5111561;28;19919;-59
2023/07/11 01:49:40;;;;;;;;;;;24.00;55.50;;;;;;5111439;28;20002;-59
2023/07/11 01:52:11;;;;;;;;;;;24.00;55.50;;;;;;5111614;28;19919;-58
2023/07/11 01:54:36;;;;;;;;;;;24.00;55.50;;;;;;5111297;28;19924;-59
2023/07/11 01:57:02;;;;;;;;;;;24.00;55.60;;;;;;5114066;28;20371;-59
2023/07/11 01:59:28;;;;;;;;;;;23.90;55.50;;;;;;5115318;28;20336;-59
2023/07/11 02:01:53;;;;;;;;;;;23.90;55.50;;;;;;5115596;28;19967;-59
2023/07/11 02:04:21;;;;;;;;;;;23.90;55.50;;;;;;5115337;28;20122;-58
2023/07/11 02:06:48;;;;;;;;;;;23.90;55.50;;;;;;5115262;28;19973;-59
2023/07/11 02:09:13;;;;;;;;;;;23.90;55.60;;;;;;5115511;28;20328;-58
2023/07/11 02:11:38;;;;;;;;;;;23.90;55.50;;;;;;5115025;28;19965;-58
2023/07/11 02:14:04;;;;;;;;;;;23.90;55.50;;;;;;5115316;28;19973;-58
2023/07/11 02:16:29;;;;;;;;;;;23.90;55.60;;;;;;5115391;28;20275;-59
2023/07/11 02:18:55;;;;;;;;;;;23.90;55.60;;;;;;5115106;28;20157;-58
2023/07/11 02:21:20;;;;;;;;;;;23.90;55.60;;;;;;5115155;28;19984;-58
2023/07/11 02:23:46;;;;;;;;;;;23.90;55.60;;;;;;5114969;28;19920;-59
2023/07/11 02:26:11;;;;;;;;;;;23.90;55.60;;;;;;5115043;28;19927;-59
2023/07/11 02:28:37;;;;;;;;;;;23.90;55.70;;;;;;5115192;28;20026;-59
2023/07/11 02:31:02;;;;;;;;;;;23.90;55.70;;;;;;5116252;28;20014;-58
2023/07/11 02:33:28;;;;;;;;;;;23.90;55.70;;;;;;5149157;27;20402;-58
2023/07/11 02:35:54;;;;;;;;;;;23.90;55.70;;;;;;5114343;28;20068;-58
2023/07/11 02:38:19;;;;;;;;;;;23.80;55.70;;;;;;5115998;28;19927;-59
2023/07/11 02:40:45;;;;;;;;;;;23.80;55.70;;;;;;5114674;28;19920;-59
2023/07/11 02:43:10;;;;;;;;;;;23.80;55.70;;;;;;5115863;28;20006;-58
2023/07/11 02:45:36;;;;;;;;;;;23.80;55.80;;;;;;5115799;28;19926;-59
2023/07/11 02:48:01;;;;;;;;;;;23.80;55.70;;;;;;5114575;28;19920;-59
2023/07/11 02:50:27;;;;;;;;;;;23.80;55.80;;;;;;5114497;28;20026;-58
2023/07/11 02:52:53;;;;;;;;;;;23.80;55.80;;;;;;5115636;28;19973;-58
2023/07/11 02:55:18;;;;;;;;;;;23.80;55.80;;;;;;5115629;28;19974;-59
2023/07/11 02:57:44;;;;;;;;;;;23.80;55.80;;;;;;5114515;28;19926;-58
2023/07/11 03:00:10;;;;;;;;;;;23.80;55.80;;;;;;5114355;28;19920;-58
2023/07/11 03:02:35;;;;;;;;;;;23.80;55.80;;;;;;5115494;28;19946;-59
2023/07/11 03:05:01;;;;;;;;;;;23.80;55.80;;;;;;5148818;27;19923;-58
2023/07/11 03:07:27;;;;;;;;;;;23.80;55.90;;;;;;5114944;28;19945;-59
2023/07/11 03:09:52;;;;;;;;;;;23.80;55.90;;;;;;5114364;28;19926;-59
2023/07/11 03:12:18;;;;;;;;;;;23.70;55.80;;;;;;5115231;28;19929;-58
2023/07/11 03:14:43;;;;;;;;;;;23.70;55.80;;;;;;5114142;28;19927;-59
2023/07/11 03:17:08;;;;;;;;;;;23.80;55.90;;;;;;5115593;28;19972;-58
2023/07/11 03:19:34;;;;;;;;;;;23.70;55.80;;;;;;5114180;28;19919;-58
2023/07/11 03:21:59;;;;;;;;;;;23.70;55.90;;;;;;5113874;28;20367;-59
2023/07/11 03:24:25;;;;;;;;;;;23.70;55.90;;;;;;5113957;28;19920;-59
2023/07/11 03:26:50;;;;;;;;;;;23.70;55.90;;;;;;5114968;28;20397;-58
2023/07/11 03:29:16;;;;;;;;;;;23.70;55.90;;;;;;5114852;28;19924;-59
2023/07/11 03:31:42;;;;;;;;;;;23.70;55.90;;;;;;5113686;28;19920;-58
2023/07/11 03:34:07;;;;;;;;;;;23.70;55.90;;;;;;5113533;28;19978;-59
2023/07/11 03:36:33;;;;;;;;;;;23.70;55.90;;;;;;5113711;28;19927;-59
2023/07/11 03:38:58;;;;;;;;;;;23.70;56.00;;;;;;5113440;28;19920;-58
2023/07/11 03:41:24;;;;;;;;;;;23.70;56.00;;;;;;5113440;28;19966;-59
2023/07/11 03:43:49;;;;;;;;;;;23.70;56.00;;;;;;5113608;28;20006;-59
2023/07/11 03:46:15;;;;;;;;;;;23.70;56.00;;;;;;5113306;28;19970;-58
2023/07/11 03:48:40;;;;;;;;;;;23.70;56.00;;;;;;5114590;28;19919;-58
2023/07/11 03:51:06;;;;;;;;;;;23.70;56.00;;;;;;5114821;28;19927;-59
2023/07/11 03:53:31;;;;;;;;;;;23.70;56.00;;;;;;5114528;28;19919;-59
2023/07/11 03:55:57;;;;;;;;;;;23.70;56.00;;;;;;5113140;28;19923;-59
2023/07/11 03:58:23;;;;;;;;;;;23.60;56.00;;;;;;5113634;28;19974;-59
2023/07/11 04:00:49;;;;;;;;;;;23.70;56.10;;;;;;5113301;28;19920;-58
2023/07/11 04:03:14;;;;;;;;;;;23.70;56.10;;;;;;5114525;28;20432;-59
2023/07/11 04:05:41;;;;;;;;;;;23.60;56.00;;;;;;5113270;28;19920;-58
2023/07/11 04:08:08;;;;;;;;;;;23.60;56.00;;;;;;5114353;28;19920;-58
2023/07/11 04:10:34;;;;;;;;;;;23.60;56.00;;;;;;5114159;28;19923;-59
2023/07/11 04:12:59;;;;;;;;;;;23.60;56.00;;;;;;5114153;28;19977;-58
2023/07/11 04:15:25;;;;;;;;;;;23.60;56.00;;;;;;5112796;28;19945;-59
2023/07/11 04:17:50;;;;;;;;;;;23.60;56.00;;;;;;5112715;28;19978;-58
2023/07/11 04:20:16;;;;;;;;;;;23.60;56.10;;;;;;5111771;28;19926;-58
2023/07/11 04:22:41;;;;;;;;;;;23.60;56.00;;;;;;5113901;28;19920;-58
2023/07/11 04:25:07;;;;;;;;;;;23.60;56.10;;;;;;5112779;28;19947;-58
2023/07/11 04:27:32;;;;;;;;;;;23.60;56.10;;;;;;5112814;28;20451;-58
2023/07/11 04:29:58;;;;;;;;;;;23.60;56.20;;;;;;5113773;28;20311;-59
2023/07/11 04:32:23;;;;;;;;;;;23.60;56.20;;;;;;5112476;28;19920;-59
2023/07/11 04:34:49;;;;;;;;;;;23.60;56.20;;;;;;5112285;28;19927;-59
2023/07/11 04:37:15;;;;;;;;;;;23.60;56.20;;;;;;5113795;28;20390;-58
2023/07/11 04:39:40;;;;;;;;;;;23.60;56.20;;;;;;5112721;28;19927;-59
2023/07/11 04:42:06;;;;;;;;;;;23.50;56.10;;;;;;5112211;28;19925;-58
2023/07/11 04:44:32;;;;;;;;;;;23.60;56.20;;;;;;5112291;28;19987;-59
2023/07/11 04:46:57;;;;;;;;;;;23.50;56.20;;;;;;5112253;28;20374;-58
2023/07/11 04:49:23;;;;;;;;;;;23.50;56.20;;;;;;5113518;28;19930;-59
2023/07/11 04:51:50;;;;;;;;;;;23.50;56.20;;;;;;5112410;28;20420;-59
2023/07/11 04:54:16;;;;;;;;;;;23.50;56.20;;;;;;5112314;28;20439;-59
2023/07/11 04:56:42;;;;;;;;;;;23.50;56.20;;;;;;5112023;28;19924;-59
2023/07/11 04:59:07;;;;;;;;;;;23.50;56.20;;;;;;5112358;28;19920;-59
2023/07/11 05:01:33;;;;;;;;;;;23.50;56.30;;;;;;5111855;28;19928;-58
2023/07/11 05:03:58;;;;;;;;;;;23.50;56.30;;;;;;5113179;28;19970;-59
2023/07/11 05:06:24;;;;;;;;;;;23.50;56.30;;;;;;5146198;27;20002;-58
2023/07/11 05:08:49;;;;;;;;;;;23.50;56.30;;;;;;5095181;28;19919;-59
2023/07/11 05:11:16;;;;;;;;;;;23.50;56.30;;;;;;5111785;28;19953;-58
2023/07/11 05:13:43;;;;;;;;;;;23.50;56.40;;;;;;5112134;28;20010;-59
2023/07/11 05:16:11;;;;;;;;;;;23.50;56.40;;;;;;5111571;28;19924;-59
2023/07/11 05:18:40;;;;;;;;;;;23.50;56.40;;;;;;5112071;28;19930;-58
2023/07/11 05:21:07;;;;;;;;;;;23.50;56.40;;;;;;5111602;28;19919;-59
2023/07/11 05:23:33;;;;;;;;;;;23.50;56.40;;;;;;5112099;28;19963;-59
2023/07/11 05:25:58;;;;;;;;;;;23.50;56.40;;;;;;5111387;28;19963;-60
2023/07/11 05:28:25;;;;;;;;;;;23.50;56.50;;;;;;5142443;27;19966;-59
2023/07/11 05:30:50;;;;;;;;;;;23.50;56.60;;;;;;5110012;28;19920;-59
2023/07/11 05:33:16;;;;;;;;;;;23.50;56.70;;;;;;5108719;28;19923;-58
2023/07/11 05:35:51;;;;;;;;;;;23.50;56.80;;;;;;5110101;28;19930;-59
2023/07/11 05:38:16;;;;;;;;;;;23.50;56.90;;;;;;5109527;28;19949;-60
2023/07/11 05:40:42;;;;;;;;;;;23.50;57.10;;;;;;5109318;28;20336;-59
2023/07/11 05:43:07;;;;;;;;;;;23.50;57.10;;;;;;5107219;28;19924;-61
2023/07/11 05:45:33;;;;;;;;;;;23.50;57.30;;;;;;5105668;28;19934;-58
2023/07/11 05:47:59;;;;;;;;;;;23.50;57.40;;;;;;5108128;28;19958;-58
2023/07/11 05:50:25;;;;;;;;;;;23.50;57.50;;;;;;5109061;28;20105;-58
2023/07/11 05:52:50;;;;;;;;;;;23.50;57.70;;;;;;5090997;28;19926;-58
2023/07/11 05:55:16;;;;;;;;;;;23.50;57.80;;;;;;5108756;28;19923;-58
2023/07/11 05:57:41;;;;;;;;;;;23.50;57.80;;;;;;5107750;28;20020;-59
2023/07/11 06:00:09;;;;;;;;;;;23.50;57.90;;;;;;5107542;28;19946;-59
2023/07/11 06:02:35;;;;;;;;;;;23.50;57.90;;;;;;5109373;28;19941;-62
2023/07/11 06:05:01;;;;;;;;;;;23.60;57.70;;;;;;5107444;28;20267;-58
2023/07/11 06:07:28;;;;;;;;;;;23.60;57.70;;;;;;5100387;28;19970;-59
2023/07/11 06:09:54;;;;;;;;;;;23.60;57.60;;;;;;5086234;28;19945;-58
2023/07/11 06:12:19;;;;;;;;;;;23.60;57.60;;;;;;5085057;28;20366;-58
2023/07/11 06:14:45;;;;;;;;;;;23.60;57.70;;;;;;5094853;28;20318;-61
2023/07/11 06:17:10;;;;;;;;;;;23.60;57.80;;;;;;5101508;28;20186;-60
2023/07/11 06:19:36;;;;;;;;;;;23.60;57.90;;;;;;5100392;28;19920;-59
2023/07/11 06:22:01;;;;;;;;;;;23.60;57.90;;;;;;5101629;28;19942;-59
2023/07/11 06:24:27;;;;;;;;;;;23.60;58.10;;;;;;5099137;28;20326;-59
2023/07/11 06:26:52;;;;;;;;;;;23.60;58.00;;;;;;5112817;28;19930;-58
2023/07/11 06:29:17;;;;;;;;;;;23.60;57.90;;;;;;5089645;28;20075;-60
2023/07/11 06:31:43;;;;;;;;;;;23.60;58.00;;;;;;5085445;27;19936;-60
2023/07/11 06:34:09;;;;;;;;;;;23.60;58.20;;;;;;5088832;28;19931;-58
2023/07/11 06:36:34;;;;;;;;;;;23.60;58.30;;;;;;5095923;28;19959;-59
2023/07/11 06:39:00;;;;;;;;;;;23.60;58.30;;;;;;5088958;28;19920;-59
2023/07/11 06:41:28;;;;;;;;;;;23.60;58.20;;;;;;5089629;28;20016;-59
2023/07/11 06:43:54;;;;;;;;;;;23.60;58.30;;;;;;5091182;28;19928;-59
2023/07/11 06:46:19;;;;;;;;;;;23.60;58.30;;;;;;5099665;27;19920;-59
2023/07/11 06:48:45;;;;;;;;;;;23.60;58.40;;;;;;5090630;27;20471;-58
2023/07/11 06:51:10;;;;;;;;;;;23.60;58.60;;;;;;5129550;27;20388;-58
2023/07/11 06:53:36;;;;;;;;;;;23.60;58.80;;;;;;5094090;28;19920;-58
2023/07/11 06:56:03;;;;;;;;;;;23.70;59.10;;;;;;5131565;27;19926;-58
2023/07/11 06:58:28;;;;;;;;;;;23.60;59.10;;;;;;5092992;28;19967;-61
2023/07/11 07:00:55;;;;;;;;;;;23.70;59.40;;;;;;5096703;28;19989;-58
2023/07/11 07:03:21;;;;;;;;;;;23.70;59.70;;;;;;5094504;28;19924;-58
2023/07/11 07:05:49;;;;;;;;;;;23.70;59.80;;;;;;5097638;27;19942;-57
2023/07/11 07:08:15;;;;;;;;;;;23.70;60.00;;;;;;5092232;28;19924;-58
2023/07/11 07:10:40;;;;;;;;;;;23.70;60.10;;;;;;5127830;27;19924;-58
2023/07/11 07:13:06;;;;;;;;;;;23.80;60.30;;;;;;5095241;27;20406;-57
2023/07/11 07:15:31;;;;;;;;;;;23.70;60.40;;;;;;5095402;28;19959;-58
2023/07/11 07:17:57;;;;;;;;;;;23.80;60.60;;;;;;5094071;28;20375;-58
2023/07/11 07:20:22;;;;;;;;;;;23.80;60.70;;;;;;5099857;27;19931;-58
2023/07/11 07:22:48;;;;;;;;;;;23.80;60.70;;;;;;5093684;27;19951;-58
2023/07/11 07:25:13;;;;;;;;;;;23.80;60.80;;;;;;5092405;28;20337;-58
2023/07/11 07:27:39;;;;;;;;;;;23.80;60.90;;;;;;5094519;27;19920;-57
2023/07/11 07:30:05;;;;;;;;;;;23.80;60.80;;;;;;5091767;28;20393;-57
2023/07/11 07:32:30;;;;;;;;;;;23.80;61.10;;;;;;5094203;28;19924;-59
2023/07/11 07:34:55;;;;;;;;;;;23.90;61.10;;;;;;5094418;28;20034;-58
2023/07/11 07:37:21;;;;;;;;;;;23.90;61.10;;;;;;5131441;27;19920;-59
2023/07/11 07:39:46;;;;;;;;;;;23.90;61.20;;;;;;5095772;28;19954;-58
2023/07/11 07:42:12;;;;;;;;;;;23.90;61.30;;;;;;5092118;28;19932;-58
2023/07/11 07:44:39;;;;;;;;;;;23.90;61.30;;;;;;5094711;28;19920;-58
2023/07/11 07:47:05;;;;;;;;;;;23.90;61.30;;;;;;5093626;27;20315;-59
2023/07/11 07:49:30;;;;;;;;;;;24.00;61.40;;;;;;5092330;28;19920;-58
2023/07/11 07:51:55;;;;;;;;;;;24.00;61.60;;;;;;5094537;28;19927;-59
2023/07/11 07:54:21;;;;;;;;;;;24.00;61.80;;;;;;5091882;27;20022;-59
2023/07/11 07:56:46;;;;;;;;;;;24.00;61.70;;;;;;5096187;27;19924;-57
2023/07/11 07:59:12;;;;;;;;;;;24.00;61.60;;;;;;5093394;27;19923;-58
2023/07/11 08:01:38;;;;;;;;;;;24.10;61.70;;;;;;5125802;27;20007;-58
2023/07/11 08:04:03;;;;;;;;;;;24.10;61.70;;;;;;5094176;27;19928;-58
2023/07/11 08:06:29;;;;;;;;;;;24.10;61.80;;;;;;5096700;27;19984;-58
2023/07/11 08:08:54;;;;;;;;;;;24.00;61.30;;;;;;5094995;28;19934;-58
2023/07/11 08:11:20;;;;;;;;;;;24.10;61.30;;;;;;5092408;28;20515;-59
2023/07/11 08:13:46;;;;;;;;;;;24.10;61.10;;;;;;5092240;28;19946;-60
2023/07/11 08:16:11;;;;;;;;;;;24.10;61.10;;;;;;5125110;27;19924;-59
2023/07/11 08:18:37;;;;;;;;;;;24.10;61.00;;;;;;5093586;28;19977;-59
2023/07/11 08:21:02;;;;;;;;;;;24.10;61.00;;;;;;5126419;27;19963;-60
2023/07/11 08:23:28;;;;;;;;;;;24.10;61.00;;;;;;5109430;27;20430;-60
2023/07/11 08:25:54;;;;;;;;;;;24.10;61.30;;;;;;5093453;27;19977;-58
2023/07/11 08:28:19;;;;;;;;;;;24.10;61.20;;;;;;5095057;27;19930;-58
2023/07/11 08:30:45;;;;;;;;;;;24.20;61.30;;;;;;5094727;28;19924;-59
2023/07/11 08:33:10;;;;;;;;;;;24.20;61.20;;;;;;5091186;28;20002;-59
2023/07/11 08:35:36;;;;;;;;;;;24.20;61.20;;;;;;5089756;28;20034;-59
2023/07/11 08:38:02;;;;;;;;;;;24.20;61.00;;;;;;5095504;28;19994;-59
2023/07/11 08:40:30;;;;;;;;;;;24.30;60.90;;;;;;5092775;28;20378;-59
2023/07/11 08:42:56;;;;;;;;;;;24.20;60.30;;;;;;5101099;28;19920;-59
2023/07/11 08:45:25;;;;;;;;;;;24.30;60.10;;;;;;5129298;27;19927;-60
2023/07/11 08:50:36;;;;;;;;;;;24.30;59.30;;;;;;5074194;27;19969;-58
2023/07/11 08:53:19;;;;;;;;;;;24.30;59.00;;;;;;5068612;28;19950;-58
2023/07/11 08:55:49;;;;;;;;;;;24.40;58.90;;;;;;5071169;28;19932;-60
2023/07/11 08:58:17;;;;;;;;;;;24.50;58.70;;;;;;5070361;28;19931;-59
2023/07/11 09:00:44;;;;;;;;;;;24.50;58.80;;;;;;5074506;28;20406;-59
2023/07/11 09:03:13;;;;;;;;;;;24.60;58.60;;;;;;5075623;28;19958;-59
2023/07/11 09:05:41;;;;;;;;;;;24.60;58.60;;;;;;5066899;28;19928;-60
2023/07/11 09:08:16;;;;;;;;;;;24.60;58.40;;;;;;5073852;28;19933;-60
2023/07/11 09:13:31;;;;;;;;;;;24.70;58.40;;;;;;5064407;28;20281;-59
2023/07/11 09:16:02;;;;;;;;;;;24.70;58.30;;;;;;5052044;28;19929;-59
2023/07/11 09:18:48;;;;;;;;;;;24.80;58.50;;;;;;5058255;28;19962;-59
2023/07/11 09:21:18;;;;;;;;;;;24.80;58.50;;;;;;5064055;28;19931;-59
2023/07/11 09:24:04;;;;;;;;;;;24.80;58.50;;;;;;5057150;28;20422;-59
2023/07/11 09:26:30;;;;;;;;;;;24.80;58.50;;;;;;5060218;28;19924;-59
2023/07/11 09:28:59;;;;;;;;;;;24.80;58.20;;;;;;5057195;28;19951;-60
2023/07/11 09:31:25;;;;;;;;;;;24.90;57.80;;;;;;5062550;28;19933;-60
2023/07/11 09:33:52;;;;;;;;;;;24.90;57.60;;;;;;5067111;28;19929;-60
2023/07/11 09:36:33;;;;;;;;;;;25.00;57.60;;;;;;5061566;28;19924;-61
2023/07/11 09:39:04;;;;;;;;;;;25.00;57.40;;;;;;5074626;28;19925;-59
2023/07/11 09:41:43;;;;;;;;;;;25.00;57.30;;;;;;5050912;28;19924;-58
2023/07/11 09:44:09;;;;;;;;;;;25.00;57.10;;;;;;5070754;28;19935;-57
2023/07/11 09:46:35;;;;;;;;;;;25.10;57.20;;;;;;5075705;28;19925;-58
2023/07/11 09:49:03;;;;;;;;;;;25.10;57.30;;;;;;5061303;28;19921;-58
2023/07/11 09:51:36;;;;;;;;;;;25.10;57.40;;;;;;5061087;28;19932;-59
2023/07/11 09:54:04;;;;;;;;;;;25.20;57.70;;;;;;5063991;28;19931;-60
2023/07/11 09:56:42;;;;;;;;;;;25.20;57.80;;;;;;5064634;28;20287;-59
2023/07/11 09:59:10;;;;;;;;;;;25.20;58.00;;;;;;5076208;28;20011;-58
2023/07/11 10:01:36;;;;;;;;;;;25.20;57.90;;;;;;5059098;28;19924;-58
2023/07/11 10:04:05;;;;;;;;;;;25.30;58.20;;;;;;5059126;28;19924;-58
2023/07/11 10:06:32;;;;;;;;;;;25.30;57.80;;;;;;5058867;28;20443;-57
2023/07/11 10:09:03;;;;;;;;;;;25.40;58.20;;;;;;5073430;28;19921;-59
2023/07/11 10:11:29;;;;;;;;;;;25.40;58.30;;;;;;5055183;28;19931;-58
2023/07/11 10:13:55;;;;;;;;;;;25.40;57.70;;;;;;5062643;28;19925;-58
2023/07/11 10:16:22;;;;;;;;;;;25.40;58.00;;;;;;5063705;28;19924;-58
2023/07/11 10:18:47;;;;;;;;;;;25.50;58.30;;;;;;5056226;28;19924;-58
2023/07/11 10:21:16;;;;;;;;;;;25.50;58.50;;;;;;5061215;28;19921;-57
2023/07/11 10:23:42;;;;;;;;;;;25.50;58.60;;;;;;5042778;28;19966;-58
2023/07/11 10:31:39;;;;;;;;;;;25.50;59.20;;;;;;5077175;27;19927;-58
2023/07/11 10:34:12;;;;;;;;;;;25.60;59.60;;;;;;5058078;28;19924;-58
2023/07/11 10:36:39;;;;;;;;;;;25.60;59.50;;;;;;5061539;28;20351;-59
2023/07/11 10:39:08;;;;;;;;;;;25.60;59.50;;;;;;5058210;28;19961;-60
2023/07/11 10:41:38;;;;;;;;;;;25.60;60.30;;;;;;5062410;28;19921;-58
2023/07/11 10:44:08;;;;;;;;;;;25.60;59.60;;;;;;5056854;28;19924;-58
2023/07/11 10:46:37;;;;;;;;;;;25.60;59.00;;;;;;5057002;28;19924;-58
2023/07/11 10:49:06;;;;;;;;;;;25.70;59.30;;;;;;5072563;28;19924;-58
2023/07/11 10:51:43;;;;;;;;;;;25.70;59.70;;;;;;5059561;28;19956;-58
2023/07/11 10:56:56;;;;;;;;;;;25.70;60.40;;;;;;5084407;27;19921;-58
2023/07/11 10:59:23;;;;;;;;;;;25.80;60.50;;;;;;5091087;28;19928;-60
2023/07/11 11:01:55;;;;;;;;;;;25.70;60.70;;;;;;5087350;28;19925;-58
2023/07/11 11:12:49;;;;;;;;;;;25.80;61.00;;;;;;5092572;27;19920;-58
2023/07/11 11:15:20;;;;;;;;;;;25.70;61.30;;;;;;5105150;27;19924;-57
2023/07/11 11:17:55;;;;;;;;;;;25.80;61.50;;;;;;5074672;28;19931;-58
2023/07/11 11:20:25;;;;;;;;;;;25.80;61.60;;;;;;5072193;28;19936;-59
2023/07/11 11:25:45;;;;;;;;;;;25.80;61.70;;;;;;5076000;27;19920;-61
2023/07/11 11:28:30;;;;;;;;;;;25.80;61.70;;;;;;5048627;28;19932;-58
2023/07/11 11:33:46;;;;;;;;;;;25.80;61.70;;;;;;5056949;28;20313;-58
2023/07/11 11:36:21;;;;;;;;;;;25.90;61.80;;;;;;5034515;28;20353;-58
2023/07/11 11:39:06;;;;;;;;;;;25.90;62.00;;;;;;5049550;28;19925;-58
2023/07/11 11:41:35;;;;;;;;;;;25.90;62.00;;;;;;5051673;28;19925;-58
2023/07/11 11:44:03;;;;;;;;;;;25.90;61.90;;;;;;5031846;28;19925;-58
2023/07/11 11:46:28;;;;;;;;;;;25.90;62.00;;;;;;5050025;28;19932;-59
2023/07/11 11:48:56;;;;;;;;;;;25.90;62.40;;;;;;5034201;28;19925;-61
2023/07/11 11:51:23;;;;;;;;;;;25.90;62.50;;;;;;5036771;28;20371;-59
2023/07/11 11:54:08;;;;;;;;;;;25.90;61.90;;;;;;5036512;28;19920;-60
2023/07/11 11:56:39;;;;;;;;;;;25.90;61.90;;;;;;5048771;28;20020;-59
2023/07/11 11:59:06;;;;;;;;;;;25.90;61.70;;;;;;5049664;28;20540;-59
2023/07/11 12:01:46;;;;;;;;;;;26.00;61.70;;;;;;5055856;28;19924;-59
2023/07/11 12:04:32;;;;;;;;;;;26.00;61.80;;;;;;5054530;28;20016;-58
2023/07/11 12:15:22;;;;;;;;;;;26.00;61.50;;;;;;5064164;28;19924;-60
2023/07/11 12:17:49;;;;;;;;;;;26.10;61.70;;;;;;5061824;28;19937;-59
2023/07/11 12:20:30;;;;;;;;;;;26.10;61.90;;;;;;5049840;28;19929;-59
2023/07/11 12:25:36;;;;;;;;;;;26.10;60.40;;;;;;5087267;27;19939;-58
2023/07/11 12:28:02;;;;;;;;;;;26.10;58.60;;;;;;5072739;28;20458;-58
2023/07/11 12:30:34;;;;;;;;;;;26.20;58.50;;;;;;5072922;28;19924;-59
2023/07/11 12:33:20;;;;;;;;;;;26.20;58.70;;;;;;5069274;28;19928;-58
2023/07/11 12:35:46;;;;;;;;;;;26.20;58.40;;;;;;5070440;28;19924;-59
2023/07/11 12:38:19;;;;;;;;;;;26.20;59.10;;;;;;5071940;28;19928;-58
2023/07/11 12:40:49;;;;;;;;;;;26.20;59.30;;;;;;5077161;28;20623;-58
2023/07/11 12:45:55;;;;;;;;;;;26.20;59.30;;;;;;5057767;28;20376;-61
2023/07/11 12:51:05;;;;;;;;;;;26.30;59.30;;;;;;5066147;27;19920;-60
2023/07/11 12:53:34;;;;;;;;;;;26.30;58.50;;;;;;5096201;27;19928;-59
2023/07/11 12:56:00;;;;;;;;;;;26.30;58.00;;;;;;5068579;28;19921;-60
2023/07/11 12:58:27;;;;;;;;;;;26.30;58.00;;;;;;5058574;28;19981;-59
2023/07/11 13:00:54;;;;;;;;;;;26.30;58.00;;;;;;5061164;28;19925;-60
2023/07/11 13:03:28;;;;;;;;;;;26.40;57.50;;;;;;5065945;28;19924;-61
2023/07/11 13:05:55;;;;;;;;;;;26.40;57.40;;;;;;5068443;28;19924;-59
2023/07/11 13:08:21;;;;;;;;;;;26.40;57.10;;;;;;5062221;28;19969;-59
2023/07/11 13:10:49;;;;;;;;;;;26.40;56.60;;;;;;5063159;28;19936;-59
2023/07/11 13:13:15;;;;;;;;;;;26.40;56.30;;;;;;5075795;28;19932;-59
2023/07/11 13:15:40;;;;;;;;;;;26.40;56.00;;;;;;5078106;28;20002;-58
2023/07/11 13:18:19;;;;;;;;;;;26.40;55.80;;;;;;5078573;28;19928;-59
2023/07/11 13:20:45;;;;;;;;;;;26.40;55.60;;;;;;5077003;28;20003;-59
2023/07/11 13:23:10;;;;;;;;;;;26.40;55.60;;;;;;5079697;28;19935;-61
2023/07/11 13:25:38;;;;;;;;;;;26.50;55.50;;;;;;5080615;28;20035;-60
2023/07/11 13:28:14;;;;;;;;;;;26.50;55.40;;;;;;5102528;27;19928;-61
2023/07/11 13:30:39;;;;;;;;;;;26.50;55.40;;;;;;5075654;28;19932;-59
2023/07/11 13:33:14;;;;;;;;;;;26.50;55.40;;;;;;5103238;28;19998;-59
2023/07/11 13:35:49;;;;;;;;;;;26.40;55.60;;;;;;5077801;28;19921;-59
2023/07/11 13:38:14;;;;;;;;;;;26.50;56.00;;;;;;5074800;28;19947;-59
2023/07/11 13:40:40;;;;;;;;;;;26.50;56.80;;;;;;5109045;28;20528;-61
2023/07/11 13:43:23;;;;;;;;;;;26.50;56.70;;;;;;5077564;28;19989;-59
2023/07/11 13:45:49;;;;;;;;;;;26.50;57.00;;;;;;5072185;28;19920;-58
2023/07/11 13:48:17;;;;;;;;;;;26.50;56.70;;;;;;5080816;28;19927;-66
2023/07/11 13:50:42;;;;;;;;;;;26.50;57.00;;;;;;5110067;28;20039;-60
2023/07/11 13:53:13;;;;;;;;;;;26.50;56.10;;;;;;5106136;28;20556;-59
2023/07/11 13:55:44;;;;;;;;;;;26.50;56.20;;;;;;5077354;28;19926;-59
2023/07/11 13:58:09;;;;;;;;;;;26.60;56.00;;;;;;5075016;28;19920;-60
2023/07/11 14:00:35;;;;;;;;;;;26.60;55.70;;;;;;5075451;28;19931;-61
2023/07/11 14:03:01;;;;;;;;;;;26.60;55.50;;;;;;5063849;28;19987;-60
2023/07/11 14:05:28;;;;;;;;;;;26.60;55.80;;;;;;5062986;28;19934;-59
2023/07/11 14:07:55;;;;;;;;;;;26.60;56.00;;;;;;5064979;28;19939;-58
2023/07/11 14:10:22;;;;;;;;;;;26.60;55.10;;;;;;5067394;28;19924;-59
2023/07/11 14:12:48;;;;;;;;;;;26.60;55.30;;;;;;5064647;28;20398;-59
2023/07/11 14:15:15;;;;;;;;;;;26.60;55.50;;;;;;5062710;28;19935;-59
2023/07/11 14:17:41;;;;;;;;;;;26.60;55.40;;;;;;5062852;28;19924;-58
2023/07/11 14:20:11;;;;;;;;;;;26.60;55.40;;;;;;5065612;28;19928;-58
2023/07/11 14:22:38;;;;;;;;;;;26.60;55.60;;;;;;5089960;28;19925;-58
2023/07/11 14:25:04;;;;;;;;;;;26.60;55.70;;;;;;5065306;28;19928;-57
2023/07/11 14:27:29;;;;;;;;;;;26.60;55.90;;;;;;5092426;28;19966;-58
2023/07/11 14:29:55;;;;;;;;;;;26.60;56.00;;;;;;5062833;28;20159;-59
2023/07/11 14:32:20;;;;;;;;;;;26.60;56.10;;;;;;5061965;28;19928;-59
2023/07/11 14:34:46;;;;;;;;;;;26.60;56.00;;;;;;5062438;28;19935;-60
2023/07/11 14:37:14;;;;;;;;;;;26.60;55.90;;;;;;5064218;28;19924;-59
2023/07/11 14:39:39;;;;;;;;;;;26.60;55.60;;;;;;5058400;28;19931;-62
2023/07/11 14:42:15;;;;;;;;;;;26.60;55.90;;;;;;5060764;28;19928;-58
2023/07/11 14:44:41;;;;;;;;;;;26.70;56.20;;;;;;5062045;28;19924;-63
2023/07/11 14:47:08;;;;;;;;;;;26.70;56.20;;;;;;5063704;28;19986;-62
2023/07/11 14:49:34;;;;;;;;;;;26.80;56.40;;;;;;5067415;28;19932;-64
2023/07/11 14:51:59;;;;;;;;;;;26.80;56.90;;;;;;5065423;28;19927;-58
2023/07/11 14:54:26;;;;;;;;;;;26.80;57.20;;;;;;5065112;28;20421;-65
2023/07/11 14:56:52;;;;;;;;;;;26.80;56.30;;;;;;5061483;28;19974;-65
2023/07/11 14:59:22;;;;;;;;;;;26.90;56.60;;;;;;5066437;28;20375;-64
2023/07/11 15:01:47;;;;;;;;;;;26.90;57.10;;;;;;5065893;28;19964;-60